sensor_id;sensor_type;location;lat;lon;timestamp;P1;durP1;ratioP1;P2;durP2;ratioP2
47089;SDS011;32840;52.516;13.294;2023-06-24T00:00:17;20.45;;;14.27;;
47089;SDS011;32840;52.516;13.294;2023-06-24T00:03:05;20.58;;;14.30;;
47089;SDS011;32840;52.516;13.294;2023-06-24T00:05:51;19.33;;;15.13;;
47089;SDS011;32840;52.516;13.294;2023-06-24T00:08:37;20.00;;;14.23;;
47089;SDS011;32840;52.516;13.294;2023-06-24T00:11:22;17.23;;;14.55;;
47089;SDS011;32840;52.516;13.294;2023-06-24T00:14:11;22.67;;;15.85;;
47089;SDS011;32840;52.516;13.294;2023-06-24T00:17:00;27.08;;;18.58;;
47089;SDS011;32840;52.516;13.294;2023-06-24T00:19:45;24.85;;;20.10;;
47089;SDS011;32840;52.516;13.294;2023-06-24T00:22:29;25.60;;;19.02;;
47089;SDS011;32840;52.516;13.294;2023-06-24T00:25:16;27.67;;;20.00;;
47089;SDS011;32840;52.516;13.294;2023-06-24T00:28:02;23.98;;;19.73;;
47089;SDS011;32840;52.516;13.294;2023-06-24T00:30:48;25.33;;;19.52;;
47089;SDS011;32840;52.516;13.294;2023-06-24T00:33:35;22.40;;;18.90;;
47089;SDS011;32840;52.516;13.294;2023-06-24T00:36:20;23.52;;;19.92;;
47089;SDS011;32840;52.516;13.294;2023-06-24T00:39:05;23.45;;;18.90;;
47089;SDS011;32840;52.516;13.294;2023-06-24T00:41:52;26.75;;;19.38;;
47089;SDS011;32840;52.516;13.294;2023-06-24T00:44:38;23.25;;;18.33;;
47089;SDS011;32840;52.516;13.294;2023-06-24T00:47:23;23.77;;;18.90;;
47089;SDS011;32840;52.516;13.294;2023-06-24T00:50:08;25.77;;;19.20;;
47089;SDS011;32840;52.516;13.294;2023-06-24T00:52:56;24.35;;;18.92;;
47089;SDS011;32840;52.516;13.294;2023-06-24T00:55:40;25.35;;;18.65;;
47089;SDS011;32840;52.516;13.294;2023-06-24T00:58:25;20.33;;;16.88;;
47089;SDS011;32840;52.516;13.294;2023-06-24T01:01:10;24.50;;;17.80;;
47089;SDS011;32840;52.516;13.294;2023-06-24T01:03:55;21.70;;;17.17;;
47089;SDS011;32840;52.516;13.294;2023-06-24T01:06:40;20.83;;;15.90;;
47089;SDS011;32840;52.516;13.294;2023-06-24T01:09:27;20.27;;;16.83;;
47089;SDS011;32840;52.516;13.294;2023-06-24T01:12:15;20.85;;;16.27;;
47089;SDS011;32840;52.516;13.294;2023-06-24T01:15:02;20.77;;;15.32;;
47089;SDS011;32840;52.516;13.294;2023-06-24T01:24:30;19.35;;;15.20;;
47089;SDS011;32840;52.516;13.294;2023-06-24T01:33:57;17.33;;;14.23;;
47089;SDS011;32840;52.516;13.294;2023-06-24T01:36:58;17.60;;;14.48;;
47089;SDS011;32840;52.516;13.294;2023-06-24T01:40:12;19.80;;;15.13;;
47089;SDS011;32840;52.516;13.294;2023-06-24T01:43:06;22.15;;;14.82;;
47089;SDS011;32840;52.516;13.294;2023-06-24T01:45:52;18.05;;;14.55;;
47089;SDS011;32840;52.516;13.294;2023-06-24T01:48:39;20.23;;;15.05;;
47089;SDS011;32840;52.516;13.294;2023-06-24T01:51:27;20.05;;;15.43;;
47089;SDS011;32840;52.516;13.294;2023-06-24T01:54:14;17.92;;;14.85;;
47089;SDS011;32840;52.516;13.294;2023-06-24T01:57:03;20.27;;;15.10;;
47089;SDS011;32840;52.516;13.294;2023-06-24T01:59:49;19.38;;;15.63;;
47089;SDS011;32840;52.516;13.294;2023-06-24T02:02:38;19.13;;;14.68;;
47089;SDS011;32840;52.516;13.294;2023-06-24T02:05:23;19.40;;;14.07;;
47089;SDS011;32840;52.516;13.294;2023-06-24T02:08:10;19.13;;;15.02;;
47089;SDS011;32840;52.516;13.294;2023-06-24T02:10:58;18.38;;;14.65;;
47089;SDS011;32840;52.516;13.294;2023-06-24T02:13:45;18.23;;;14.52;;
47089;SDS011;32840;52.516;13.294;2023-06-24T02:16:30;19.65;;;14.60;;
47089;SDS011;32840;52.516;13.294;2023-06-24T02:19:17;42.45;;;36.25;;
47089;SDS011;32840;52.516;13.294;2023-06-24T02:22:03;20.63;;;14.60;;
47089;SDS011;32840;52.516;13.294;2023-06-24T02:24:54;21.65;;;13.25;;
47089;SDS011;32840;52.516;13.294;2023-06-24T02:27:39;20.60;;;13.90;;
47089;SDS011;32840;52.516;13.294;2023-06-24T02:30:26;17.70;;;13.20;;
47089;SDS011;32840;52.516;13.294;2023-06-24T02:33:12;19.55;;;13.57;;
47089;SDS011;32840;52.516;13.294;2023-06-24T02:35:57;17.45;;;13.57;;
47089;SDS011;32840;52.516;13.294;2023-06-24T02:38:43;19.48;;;14.45;;
47089;SDS011;32840;52.516;13.294;2023-06-24T02:41:28;17.35;;;13.70;;
47089;SDS011;32840;52.516;13.294;2023-06-24T02:44:13;18.08;;;13.48;;
47089;SDS011;32840;52.516;13.294;2023-06-24T02:46:58;19.60;;;14.40;;
47089;SDS011;32840;52.516;13.294;2023-06-24T02:49:47;21.35;;;14.13;;
47089;SDS011;32840;52.516;13.294;2023-06-24T02:52:35;17.50;;;13.73;;
47089;SDS011;32840;52.516;13.294;2023-06-24T02:55:21;16.52;;;13.80;;
47089;SDS011;32840;52.516;13.294;2023-06-24T02:58:06;19.48;;;13.77;;
47089;SDS011;32840;52.516;13.294;2023-06-24T03:00:52;19.25;;;14.20;;
47089;SDS011;32840;52.516;13.294;2023-06-24T03:03:37;17.17;;;13.68;;
47089;SDS011;32840;52.516;13.294;2023-06-24T03:06:24;18.45;;;13.75;;
47089;SDS011;32840;52.516;13.294;2023-06-24T03:09:10;18.15;;;12.90;;
47089;SDS011;32840;52.516;13.294;2023-06-24T03:11:57;17.10;;;13.52;;
47089;SDS011;32840;52.516;13.294;2023-06-24T03:14:42;17.75;;;13.50;;
47089;SDS011;32840;52.516;13.294;2023-06-24T03:17:26;18.45;;;13.45;;
47089;SDS011;32840;52.516;13.294;2023-06-24T03:20:13;20.40;;;13.70;;
47089;SDS011;32840;52.516;13.294;2023-06-24T03:22:58;15.07;;;13.38;;
47089;SDS011;32840;52.516;13.294;2023-06-24T03:25:43;16.10;;;14.40;;
47089;SDS011;32840;52.516;13.294;2023-06-24T03:28:29;25.92;;;18.38;;
47089;SDS011;32840;52.516;13.294;2023-06-24T03:31:15;15.85;;;12.60;;
47089;SDS011;32840;52.516;13.294;2023-06-24T03:34:00;18.45;;;12.95;;
47089;SDS011;32840;52.516;13.294;2023-06-24T03:36:46;18.33;;;13.77;;
47089;SDS011;32840;52.516;13.294;2023-06-24T03:39:32;16.10;;;11.95;;
47089;SDS011;32840;52.516;13.294;2023-06-24T03:42:17;15.20;;;11.90;;
47089;SDS011;32840;52.516;13.294;2023-06-24T03:45:03;17.08;;;12.50;;
47089;SDS011;32840;52.516;13.294;2023-06-24T03:47:48;17.30;;;12.77;;
47089;SDS011;32840;52.516;13.294;2023-06-24T03:50:34;17.95;;;13.07;;
47089;SDS011;32840;52.516;13.294;2023-06-24T03:53:19;15.95;;;12.23;;
47089;SDS011;32840;52.516;13.294;2023-06-24T03:56:04;18.25;;;12.88;;
47089;SDS011;32840;52.516;13.294;2023-06-24T03:58:49;17.73;;;12.38;;
47089;SDS011;32840;52.516;13.294;2023-06-24T04:01:34;21.38;;;12.63;;
47089;SDS011;32840;52.516;13.294;2023-06-24T04:04:23;19.23;;;12.77;;
47089;SDS011;32840;52.516;13.294;2023-06-24T04:09:55;17.92;;;12.75;;
47089;SDS011;32840;52.516;13.294;2023-06-24T04:12:41;20.83;;;14.30;;
47089;SDS011;32840;52.516;13.294;2023-06-24T04:15:26;17.23;;;13.05;;
47089;SDS011;32840;52.516;13.294;2023-06-24T04:18:11;17.95;;;12.43;;
47089;SDS011;32840;52.516;13.294;2023-06-24T04:20:56;18.30;;;13.45;;
47089;SDS011;32840;52.516;13.294;2023-06-24T04:23:42;18.90;;;12.63;;
47089;SDS011;32840;52.516;13.294;2023-06-24T04:26:26;16.80;;;12.35;;
47089;SDS011;32840;52.516;13.294;2023-06-24T04:29:11;20.05;;;15.00;;
47089;SDS011;32840;52.516;13.294;2023-06-24T04:31:56;16.80;;;12.48;;
47089;SDS011;32840;52.516;13.294;2023-06-24T04:34:41;18.17;;;12.90;;
47089;SDS011;32840;52.516;13.294;2023-06-24T04:37:26;18.42;;;13.23;;
47089;SDS011;32840;52.516;13.294;2023-06-24T04:40:11;18.88;;;13.70;;
47089;SDS011;32840;52.516;13.294;2023-06-24T04:42:57;17.23;;;12.85;;
47089;SDS011;32840;52.516;13.294;2023-06-24T04:45:42;16.63;;;11.55;;
47089;SDS011;32840;52.516;13.294;2023-06-24T04:48:27;16.98;;;12.63;;
47089;SDS011;32840;52.516;13.294;2023-06-24T04:51:11;16.33;;;12.40;;
47089;SDS011;32840;52.516;13.294;2023-06-24T04:53:56;15.23;;;12.50;;
47089;SDS011;32840;52.516;13.294;2023-06-24T04:56:43;17.85;;;12.85;;
47089;SDS011;32840;52.516;13.294;2023-06-24T04:59:29;18.27;;;13.02;;
47089;SDS011;32840;52.516;13.294;2023-06-24T05:02:14;17.38;;;12.45;;
47089;SDS011;32840;52.516;13.294;2023-06-24T05:05:00;20.10;;;12.18;;
47089;SDS011;32840;52.516;13.294;2023-06-24T05:07:48;15.40;;;12.38;;
47089;SDS011;32840;52.516;13.294;2023-06-24T05:10:33;16.77;;;12.02;;
47089;SDS011;32840;52.516;13.294;2023-06-24T05:13:20;18.88;;;12.63;;
47089;SDS011;32840;52.516;13.294;2023-06-24T05:16:05;15.60;;;12.27;;
47089;SDS011;32840;52.516;13.294;2023-06-24T05:18:51;16.60;;;11.90;;
47089;SDS011;32840;52.516;13.294;2023-06-24T05:21:36;16.02;;;12.07;;
47089;SDS011;32840;52.516;13.294;2023-06-24T05:24:21;16.48;;;11.25;;
47089;SDS011;32840;52.516;13.294;2023-06-24T05:27:08;18.10;;;12.05;;
47089;SDS011;32840;52.516;13.294;2023-06-24T05:29:53;15.35;;;11.88;;
47089;SDS011;32840;52.516;13.294;2023-06-24T05:32:38;14.50;;;10.73;;
47089;SDS011;32840;52.516;13.294;2023-06-24T05:35:22;16.10;;;11.82;;
47089;SDS011;32840;52.516;13.294;2023-06-24T05:38:07;15.05;;;12.25;;
47089;SDS011;32840;52.516;13.294;2023-06-24T05:40:52;16.92;;;11.80;;
47089;SDS011;32840;52.516;13.294;2023-06-24T05:43:38;16.25;;;12.07;;
47089;SDS011;32840;52.516;13.294;2023-06-24T05:46:23;14.82;;;11.38;;
47089;SDS011;32840;52.516;13.294;2023-06-24T05:49:08;16.88;;;11.88;;
47089;SDS011;32840;52.516;13.294;2023-06-24T05:51:53;18.02;;;12.00;;
47089;SDS011;32840;52.516;13.294;2023-06-24T05:54:38;14.63;;;11.98;;
47089;SDS011;32840;52.516;13.294;2023-06-24T05:57:23;19.48;;;12.32;;
47089;SDS011;32840;52.516;13.294;2023-06-24T06:00:08;16.02;;;11.70;;
47089;SDS011;32840;52.516;13.294;2023-06-24T06:02:53;16.15;;;11.60;;
47089;SDS011;32840;52.516;13.294;2023-06-24T06:05:38;17.42;;;11.57;;
47089;SDS011;32840;52.516;13.294;2023-06-24T06:08:23;17.70;;;11.48;;
47089;SDS011;32840;52.516;13.294;2023-06-24T06:11:08;14.25;;;11.73;;
47089;SDS011;32840;52.516;13.294;2023-06-24T06:13:53;15.07;;;11.30;;
47089;SDS011;32840;52.516;13.294;2023-06-24T06:16:38;14.40;;;10.98;;
47089;SDS011;32840;52.516;13.294;2023-06-24T06:19:23;14.98;;;10.85;;
47089;SDS011;32840;52.516;13.294;2023-06-24T06:22:08;14.52;;;9.90;;
47089;SDS011;32840;52.516;13.294;2023-06-24T06:24:53;12.70;;;10.63;;
47089;SDS011;32840;52.516;13.294;2023-06-24T06:27:37;16.02;;;10.95;;
47089;SDS011;32840;52.516;13.294;2023-06-24T06:30:22;11.73;;;9.98;;
47089;SDS011;32840;52.516;13.294;2023-06-24T06:33:09;12.07;;;9.02;;
47089;SDS011;32840;52.516;13.294;2023-06-24T06:35:53;15.57;;;10.45;;
47089;SDS011;32840;52.516;13.294;2023-06-24T06:38:41;13.23;;;9.85;;
47089;SDS011;32840;52.516;13.294;2023-06-24T06:41:27;13.48;;;9.68;;
47089;SDS011;32840;52.516;13.294;2023-06-24T06:44:12;10.85;;;8.77;;
47089;SDS011;32840;52.516;13.294;2023-06-24T06:46:58;15.90;;;10.40;;
47089;SDS011;32840;52.516;13.294;2023-06-24T06:49:44;12.65;;;9.15;;
47089;SDS011;32840;52.516;13.294;2023-06-24T06:52:29;10.13;;;8.15;;
47089;SDS011;32840;52.516;13.294;2023-06-24T06:55:14;11.48;;;8.48;;
47089;SDS011;32840;52.516;13.294;2023-06-24T06:57:59;11.38;;;7.82;;
47089;SDS011;32840;52.516;13.294;2023-06-24T07:00:44;11.45;;;7.90;;
47089;SDS011;32840;52.516;13.294;2023-06-24T07:03:34;9.50;;;7.90;;
47089;SDS011;32840;52.516;13.294;2023-06-24T07:06:21;10.50;;;8.07;;
47089;SDS011;32840;52.516;13.294;2023-06-24T07:09:07;11.45;;;8.13;;
47089;SDS011;32840;52.516;13.294;2023-06-24T07:11:57;10.40;;;7.90;;
47089;SDS011;32840;52.516;13.294;2023-06-24T07:14:42;11.15;;;7.68;;
47089;SDS011;32840;52.516;13.294;2023-06-24T07:17:27;10.48;;;8.27;;
47089;SDS011;32840;52.516;13.294;2023-06-24T07:20:11;11.80;;;8.77;;
47089;SDS011;32840;52.516;13.294;2023-06-24T07:22:56;10.20;;;7.95;;
47089;SDS011;32840;52.516;13.294;2023-06-24T07:25:41;11.82;;;7.95;;
47089;SDS011;32840;52.516;13.294;2023-06-24T07:28:27;10.60;;;6.70;;
47089;SDS011;32840;52.516;13.294;2023-06-24T07:31:12;11.00;;;7.25;;
47089;SDS011;32840;52.516;13.294;2023-06-24T07:33:58;8.43;;;6.68;;
47089;SDS011;32840;52.516;13.294;2023-06-24T07:36:43;12.30;;;7.30;;
47089;SDS011;32840;52.516;13.294;2023-06-24T07:39:29;8.15;;;6.53;;
47089;SDS011;32840;52.516;13.294;2023-06-24T07:42:16;8.85;;;6.45;;
47089;SDS011;32840;52.516;13.294;2023-06-24T07:45:03;7.60;;;6.38;;
47089;SDS011;32840;52.516;13.294;2023-06-24T07:47:48;9.80;;;6.47;;
47089;SDS011;32840;52.516;13.294;2023-06-24T07:50:34;13.43;;;7.20;;
47089;SDS011;32840;52.516;13.294;2023-06-24T07:53:20;10.18;;;6.60;;
47089;SDS011;32840;52.516;13.294;2023-06-24T07:56:08;8.45;;;6.47;;
47089;SDS011;32840;52.516;13.294;2023-06-24T07:58:54;9.00;;;6.90;;
47089;SDS011;32840;52.516;13.294;2023-06-24T08:01:40;9.35;;;8.10;;
47089;SDS011;32840;52.516;13.294;2023-06-24T08:04:25;9.40;;;6.53;;
47089;SDS011;32840;52.516;13.294;2023-06-24T08:10:22;8.23;;;5.70;;
47089;SDS011;32840;52.516;13.294;2023-06-24T08:13:07;9.35;;;6.03;;
47089;SDS011;32840;52.516;13.294;2023-06-24T08:19:30;7.72;;;6.90;;
47089;SDS011;32840;52.516;13.294;2023-06-24T08:22:15;7.05;;;5.60;;
47089;SDS011;32840;52.516;13.294;2023-06-24T08:25:01;49.30;;;38.67;;
47089;SDS011;32840;52.516;13.294;2023-06-24T08:27:46;9.70;;;7.20;;
47089;SDS011;32840;52.516;13.294;2023-06-24T08:30:31;9.95;;;6.53;;
47089;SDS011;32840;52.516;13.294;2023-06-24T08:33:17;6.90;;;5.78;;
47089;SDS011;32840;52.516;13.294;2023-06-24T08:39:33;8.85;;;5.75;;
47089;SDS011;32840;52.516;13.294;2023-06-24T08:42:24;7.30;;;5.68;;
47089;SDS011;32840;52.516;13.294;2023-06-24T08:45:11;8.45;;;5.60;;
47089;SDS011;32840;52.516;13.294;2023-06-24T08:47:56;7.93;;;6.10;;
47089;SDS011;32840;52.516;13.294;2023-06-24T08:50:43;8.85;;;5.40;;
47089;SDS011;32840;52.516;13.294;2023-06-24T08:53:30;6.22;;;5.38;;
47089;SDS011;32840;52.516;13.294;2023-06-24T08:56:19;7.95;;;6.15;;
47089;SDS011;32840;52.516;13.294;2023-06-24T08:59:22;10.05;;;6.00;;
47089;SDS011;32840;52.516;13.294;2023-06-24T09:02:08;9.90;;;6.38;;
47089;SDS011;32840;52.516;13.294;2023-06-24T09:04:55;6.60;;;4.70;;
47089;SDS011;32840;52.516;13.294;2023-06-24T09:07:40;8.80;;;5.15;;
47089;SDS011;32840;52.516;13.294;2023-06-24T09:10:29;9.45;;;4.78;;
47089;SDS011;32840;52.516;13.294;2023-06-24T09:13:17;8.80;;;4.93;;
47089;SDS011;32840;52.516;13.294;2023-06-24T09:16:13;5.85;;;4.65;;
47089;SDS011;32840;52.516;13.294;2023-06-24T09:18:58;5.45;;;4.60;;
47089;SDS011;32840;52.516;13.294;2023-06-24T09:21:44;4.72;;;4.18;;
47089;SDS011;32840;52.516;13.294;2023-06-24T09:24:33;9.65;;;4.97;;
47089;SDS011;32840;52.516;13.294;2023-06-24T09:27:19;12.93;;;10.77;;
47089;SDS011;32840;52.516;13.294;2023-06-24T09:30:21;10.98;;;9.00;;
47089;SDS011;32840;52.516;13.294;2023-06-24T09:33:11;6.63;;;4.85;;
47089;SDS011;32840;52.516;13.294;2023-06-24T09:35:57;8.75;;;4.70;;
47089;SDS011;32840;52.516;13.294;2023-06-24T09:38:46;6.28;;;4.45;;
47089;SDS011;32840;52.516;13.294;2023-06-24T09:41:32;5.38;;;4.53;;
47089;SDS011;32840;52.516;13.294;2023-06-24T09:44:17;7.95;;;4.30;;
47089;SDS011;32840;52.516;13.294;2023-06-24T09:47:05;8.82;;;3.95;;
47089;SDS011;32840;52.516;13.294;2023-06-24T09:49:51;6.25;;;4.28;;
47089;SDS011;32840;52.516;13.294;2023-06-24T09:52:36;9.05;;;4.82;;
47089;SDS011;32840;52.516;13.294;2023-06-24T09:55:22;6.05;;;3.78;;
47089;SDS011;32840;52.516;13.294;2023-06-24T09:58:08;7.00;;;5.15;;
47089;SDS011;32840;52.516;13.294;2023-06-24T10:00:54;5.93;;;4.13;;
47089;SDS011;32840;52.516;13.294;2023-06-24T10:03:42;11.75;;;4.10;;
47089;SDS011;32840;52.516;13.294;2023-06-24T10:06:28;7.82;;;4.40;;
47089;SDS011;32840;52.516;13.294;2023-06-24T10:09:13;6.30;;;4.18;;
47089;SDS011;32840;52.516;13.294;2023-06-24T10:12:02;6.68;;;3.58;;
47089;SDS011;32840;52.516;13.294;2023-06-24T10:14:48;5.18;;;3.55;;
47089;SDS011;32840;52.516;13.294;2023-06-24T10:17:33;5.78;;;4.10;;
47089;SDS011;32840;52.516;13.294;2023-06-24T10:20:28;6.60;;;3.85;;
47089;SDS011;32840;52.516;13.294;2023-06-24T10:23:13;6.78;;;4.32;;
47089;SDS011;32840;52.516;13.294;2023-06-24T10:25:58;6.38;;;4.30;;
47089;SDS011;32840;52.516;13.294;2023-06-24T10:31:52;7.05;;;4.35;;
47089;SDS011;32840;52.516;13.294;2023-06-24T10:34:42;8.40;;;4.30;;
47089;SDS011;32840;52.516;13.294;2023-06-24T10:37:32;7.38;;;4.70;;
47089;SDS011;32840;52.516;13.294;2023-06-24T10:40:18;5.72;;;4.85;;
47089;SDS011;32840;52.516;13.294;2023-06-24T10:43:26;8.80;;;4.78;;
47089;SDS011;32840;52.516;13.294;2023-06-24T10:46:14;5.53;;;3.97;;
47089;SDS011;32840;52.516;13.294;2023-06-24T10:49:03;6.00;;;3.58;;
47089;SDS011;32840;52.516;13.294;2023-06-24T10:51:48;6.43;;;5.20;;
47089;SDS011;32840;52.516;13.294;2023-06-24T10:54:35;9.15;;;5.03;;
47089;SDS011;32840;52.516;13.294;2023-06-24T10:57:25;6.28;;;4.78;;
47089;SDS011;32840;52.516;13.294;2023-06-24T11:00:14;5.30;;;4.05;;
47089;SDS011;32840;52.516;13.294;2023-06-24T11:03:09;11.75;;;5.63;;
47089;SDS011;32840;52.516;13.294;2023-06-24T11:06:03;5.53;;;4.47;;
47089;SDS011;32840;52.516;13.294;2023-06-24T11:08:49;7.80;;;4.25;;
47089;SDS011;32840;52.516;13.294;2023-06-24T11:11:36;7.43;;;4.18;;
47089;SDS011;32840;52.516;13.294;2023-06-24T11:14:21;5.45;;;3.95;;
47089;SDS011;32840;52.516;13.294;2023-06-24T11:17:11;6.35;;;4.03;;
47089;SDS011;32840;52.516;13.294;2023-06-24T11:19:57;6.88;;;5.65;;
47089;SDS011;32840;52.516;13.294;2023-06-24T11:23:32;8.25;;;4.53;;
47089;SDS011;32840;52.516;13.294;2023-06-24T11:26:17;7.88;;;4.15;;
47089;SDS011;32840;52.516;13.294;2023-06-24T11:29:09;6.93;;;4.25;;
47089;SDS011;32840;52.516;13.294;2023-06-24T11:35:22;8.35;;;4.35;;
47089;SDS011;32840;52.516;13.294;2023-06-24T11:38:07;7.65;;;4.75;;
47089;SDS011;32840;52.516;13.294;2023-06-24T11:40:57;6.28;;;4.50;;
47089;SDS011;32840;52.516;13.294;2023-06-24T11:43:45;8.70;;;5.30;;
47089;SDS011;32840;52.516;13.294;2023-06-24T11:46:31;5.95;;;4.85;;
47089;SDS011;32840;52.516;13.294;2023-06-24T11:49:20;5.00;;;3.80;;
47089;SDS011;32840;52.516;13.294;2023-06-24T11:52:05;6.00;;;4.78;;
47089;SDS011;32840;52.516;13.294;2023-06-24T11:54:52;9.15;;;4.95;;
47089;SDS011;32840;52.516;13.294;2023-06-24T11:57:46;5.57;;;3.95;;
47089;SDS011;32840;52.516;13.294;2023-06-24T12:00:38;7.60;;;4.47;;
47089;SDS011;32840;52.516;13.294;2023-06-24T12:03:25;10.27;;;4.10;;
47089;SDS011;32840;52.516;13.294;2023-06-24T12:06:36;5.88;;;4.20;;
47089;SDS011;32840;52.516;13.294;2023-06-24T12:09:21;5.65;;;4.50;;
47089;SDS011;32840;52.516;13.294;2023-06-24T12:12:13;7.72;;;5.43;;
47089;SDS011;32840;52.516;13.294;2023-06-24T12:18:12;6.93;;;4.20;;
47089;SDS011;32840;52.516;13.294;2023-06-24T12:20:57;5.45;;;4.38;;
47089;SDS011;32840;52.516;13.294;2023-06-24T12:23:42;6.88;;;4.57;;
47089;SDS011;32840;52.516;13.294;2023-06-24T12:26:30;10.65;;;7.00;;
47089;SDS011;32840;52.516;13.294;2023-06-24T12:29:19;14.80;;;9.70;;
47089;SDS011;32840;52.516;13.294;2023-06-24T12:32:04;10.80;;;8.48;;
47089;SDS011;32840;52.516;13.294;2023-06-24T12:34:50;11.85;;;4.88;;
47089;SDS011;32840;52.516;13.294;2023-06-24T12:37:35;8.80;;;7.15;;
47089;SDS011;32840;52.516;13.294;2023-06-24T12:40:39;9.77;;;4.68;;
47089;SDS011;32840;52.516;13.294;2023-06-24T12:43:24;7.47;;;4.38;;
47089;SDS011;32840;52.516;13.294;2023-06-24T12:46:10;10.32;;;5.47;;
47089;SDS011;32840;52.516;13.294;2023-06-24T12:49:01;11.25;;;4.95;;
47089;SDS011;32840;52.516;13.294;2023-06-24T12:51:46;7.43;;;6.35;;
47089;SDS011;32840;52.516;13.294;2023-06-24T12:54:31;6.38;;;4.82;;
47089;SDS011;32840;52.516;13.294;2023-06-24T12:57:16;7.50;;;5.88;;
47089;SDS011;32840;52.516;13.294;2023-06-24T13:00:02;7.95;;;5.72;;
47089;SDS011;32840;52.516;13.294;2023-06-24T13:02:49;9.35;;;5.85;;
47089;SDS011;32840;52.516;13.294;2023-06-24T13:05:36;8.40;;;4.75;;
47089;SDS011;32840;52.516;13.294;2023-06-24T13:08:21;7.30;;;5.20;;
47089;SDS011;32840;52.516;13.294;2023-06-24T13:11:06;8.20;;;4.38;;
47089;SDS011;32840;52.516;13.294;2023-06-24T13:13:53;6.20;;;4.30;;
47089;SDS011;32840;52.516;13.294;2023-06-24T13:16:38;5.88;;;4.38;;
47089;SDS011;32840;52.516;13.294;2023-06-24T13:19:25;7.20;;;4.10;;
47089;SDS011;32840;52.516;13.294;2023-06-24T13:22:09;5.43;;;4.65;;
47089;SDS011;32840;52.516;13.294;2023-06-24T13:24:56;9.65;;;4.78;;
47089;SDS011;32840;52.516;13.294;2023-06-24T13:27:41;5.43;;;4.38;;
47089;SDS011;32840;52.516;13.294;2023-06-24T13:30:27;11.43;;;5.28;;
47089;SDS011;32840;52.516;13.294;2023-06-24T13:33:13;7.10;;;4.53;;
47089;SDS011;32840;52.516;13.294;2023-06-24T13:36:59;6.43;;;4.80;;
47089;SDS011;32840;52.516;13.294;2023-06-24T13:39:46;10.15;;;6.97;;
47089;SDS011;32840;52.516;13.294;2023-06-24T13:42:31;9.00;;;4.72;;
47089;SDS011;32840;52.516;13.294;2023-06-24T13:45:19;6.75;;;3.65;;
47089;SDS011;32840;52.516;13.294;2023-06-24T13:48:04;8.02;;;4.70;;
47089;SDS011;32840;52.516;13.294;2023-06-24T13:50:48;12.18;;;8.20;;
47089;SDS011;32840;52.516;13.294;2023-06-24T13:53:33;10.75;;;8.05;;
47089;SDS011;32840;52.516;13.294;2023-06-24T13:56:18;8.73;;;6.00;;
47089;SDS011;32840;52.516;13.294;2023-06-24T13:59:04;11.65;;;6.78;;
47089;SDS011;32840;52.516;13.294;2023-06-24T14:01:49;8.30;;;4.25;;
47089;SDS011;32840;52.516;13.294;2023-06-24T14:04:35;5.57;;;3.97;;
47089;SDS011;32840;52.516;13.294;2023-06-24T14:07:21;8.27;;;5.43;;
47089;SDS011;32840;52.516;13.294;2023-06-24T14:10:07;6.78;;;4.50;;
47089;SDS011;32840;52.516;13.294;2023-06-24T14:12:52;6.03;;;4.22;;
47089;SDS011;32840;52.516;13.294;2023-06-24T14:15:37;6.30;;;5.38;;
47089;SDS011;32840;52.516;13.294;2023-06-24T14:18:22;7.13;;;5.10;;
47089;SDS011;32840;52.516;13.294;2023-06-24T14:21:08;9.25;;;4.47;;
47089;SDS011;32840;52.516;13.294;2023-06-24T14:23:53;5.72;;;4.38;;
47089;SDS011;32840;52.516;13.294;2023-06-24T14:26:38;17.75;;;13.27;;
47089;SDS011;32840;52.516;13.294;2023-06-24T14:29:23;13.52;;;7.78;;
47089;SDS011;32840;52.516;13.294;2023-06-24T14:32:08;8.20;;;5.97;;
47089;SDS011;32840;52.516;13.294;2023-06-24T14:34:53;8.90;;;4.88;;
47089;SDS011;32840;52.516;13.294;2023-06-24T14:37:38;11.88;;;7.90;;
47089;SDS011;32840;52.516;13.294;2023-06-24T14:40:23;13.63;;;11.77;;
47089;SDS011;32840;52.516;13.294;2023-06-24T14:43:08;5.63;;;4.80;;
47089;SDS011;32840;52.516;13.294;2023-06-24T14:45:55;12.88;;;7.47;;
47089;SDS011;32840;52.516;13.294;2023-06-24T14:48:42;5.40;;;4.57;;
47089;SDS011;32840;52.516;13.294;2023-06-24T14:51:27;6.35;;;4.15;;
47089;SDS011;32840;52.516;13.294;2023-06-24T14:54:12;8.60;;;6.38;;
47089;SDS011;32840;52.516;13.294;2023-06-24T14:56:57;8.30;;;4.82;;
47089;SDS011;32840;52.516;13.294;2023-06-24T14:59:42;6.78;;;4.80;;
47089;SDS011;32840;52.516;13.294;2023-06-24T15:02:27;10.73;;;4.82;;
47089;SDS011;32840;52.516;13.294;2023-06-24T15:05:13;11.32;;;7.38;;
47089;SDS011;32840;52.516;13.294;2023-06-24T15:07:58;10.70;;;5.10;;
47089;SDS011;32840;52.516;13.294;2023-06-24T15:10:42;12.27;;;7.07;;
47089;SDS011;32840;52.516;13.294;2023-06-24T15:13:27;6.47;;;4.75;;
47089;SDS011;32840;52.516;13.294;2023-06-24T15:16:13;7.18;;;5.97;;
47089;SDS011;32840;52.516;13.294;2023-06-24T15:18:58;13.23;;;10.55;;
47089;SDS011;32840;52.516;13.294;2023-06-24T15:21:44;7.93;;;6.40;;
47089;SDS011;32840;52.516;13.294;2023-06-24T15:24:29;13.77;;;7.88;;
47089;SDS011;32840;52.516;13.294;2023-06-24T15:27:15;8.80;;;5.75;;
47089;SDS011;32840;52.516;13.294;2023-06-24T15:30:00;5.90;;;5.20;;
47089;SDS011;32840;52.516;13.294;2023-06-24T15:32:45;6.95;;;5.53;;
47089;SDS011;32840;52.516;13.294;2023-06-24T15:35:30;6.57;;;4.93;;
47089;SDS011;32840;52.516;13.294;2023-06-24T15:38:15;7.82;;;5.22;;
47089;SDS011;32840;52.516;13.294;2023-06-24T15:41:00;9.40;;;5.22;;
47089;SDS011;32840;52.516;13.294;2023-06-24T15:43:46;6.55;;;5.07;;
47089;SDS011;32840;52.516;13.294;2023-06-24T15:46:31;6.03;;;4.75;;
47089;SDS011;32840;52.516;13.294;2023-06-24T15:49:16;9.52;;;7.55;;
47089;SDS011;32840;52.516;13.294;2023-06-24T15:52:01;6.10;;;4.80;;
47089;SDS011;32840;52.516;13.294;2023-06-24T15:54:47;8.02;;;5.10;;
47089;SDS011;32840;52.516;13.294;2023-06-24T15:57:31;6.35;;;4.78;;
47089;SDS011;32840;52.516;13.294;2023-06-24T16:00:17;6.53;;;4.68;;
47089;SDS011;32840;52.516;13.294;2023-06-24T16:03:02;9.00;;;4.43;;
47089;SDS011;32840;52.516;13.294;2023-06-24T16:05:48;6.35;;;5.07;;
47089;SDS011;32840;52.516;13.294;2023-06-24T16:08:33;7.28;;;4.97;;
47089;SDS011;32840;52.516;13.294;2023-06-24T16:11:18;5.85;;;4.43;;
47089;SDS011;32840;52.516;13.294;2023-06-24T16:14:07;7.10;;;4.80;;
47089;SDS011;32840;52.516;13.294;2023-06-24T16:16:53;7.95;;;5.22;;
47089;SDS011;32840;52.516;13.294;2023-06-24T16:19:39;9.68;;;4.88;;
47089;SDS011;32840;52.516;13.294;2023-06-24T16:22:24;8.82;;;6.50;;
47089;SDS011;32840;52.516;13.294;2023-06-24T16:25:09;6.85;;;6.15;;
47089;SDS011;32840;52.516;13.294;2023-06-24T16:27:55;7.53;;;5.40;;
47089;SDS011;32840;52.516;13.294;2023-06-24T16:30:41;7.03;;;4.38;;
47089;SDS011;32840;52.516;13.294;2023-06-24T16:33:26;9.98;;;5.95;;
47089;SDS011;32840;52.516;13.294;2023-06-24T16:36:13;6.35;;;4.55;;
47089;SDS011;32840;52.516;13.294;2023-06-24T16:38:58;7.05;;;5.07;;
47089;SDS011;32840;52.516;13.294;2023-06-24T16:41:43;7.32;;;5.00;;
47089;SDS011;32840;52.516;13.294;2023-06-24T16:44:28;6.53;;;4.70;;
47089;SDS011;32840;52.516;13.294;2023-06-24T16:47:17;10.25;;;4.93;;
47089;SDS011;32840;52.516;13.294;2023-06-24T16:50:04;7.15;;;4.72;;
47089;SDS011;32840;52.516;13.294;2023-06-24T16:52:49;5.05;;;4.40;;